Main page
METAR-TAF:

METAR-TAF

Airports :

RAF Fairford

Fairford, England

latitude: 51-41N, longitude: 001-47W, elevation: 87 m

Current weather observation

The report was made 35 minutes ago, at 22:56 UTC
Wind 13 kt from the South with gusts up to 20 kt
Temperature 14°C
Humidity 63%
Pressure 1008 hPa
Visibility 10 km or more
Broken clouds at a height of 8500 ft

METAR: EGVA 052256Z AUTO 18013G20KT 9999 BKN085 14/07 A2976 RMK AO2 SLP080 T01400066 $

Time: 00:31 (23:31 UTC)


TAF: missing

Weather observations and forecasts of more than 4000 airports (METAR and TAF reports).

The available stations are represented by yellow and red dots on the map.

Hover mouse over dot to see the name of the station.

Then click to see weather observations and forecasts.

To change the map : click on the green buttons with a black cross to zoom in, on the green button with a dash to zoom out, or on the green arrows for adjacent maps.


METAR-TAF: